Main page
METAR-TAF:

METAR-TAF

Airports :

Calhoun County Airport

Port Lavaca, Texas, United States

latitude: 28-39-14N, longitude: 096-40-52W, elevation: 30 ft

Current weather observation

The report was made 23 minutes ago, at 20:55 UTC
Wind 18 mph from the South
Temperature 79°F
Humidity 79%
Pressure 29.84 in. Hg
Visibility: 10 miles
Scattered clouds at a height of 1500 ft
Broken clouds at a height of 3100 ft
Overcast at a height of 3700 ft

METAR: KPKV 172055Z AUTO 17016KT 10SM SCT015 BKN031 OVC037 26/22 A2984 RMK AO2 T02580220

Time: 15:18 (21:18 UTC)


TAF: missing

Weather observations and forecasts of more than 4000 airports (METAR and TAF reports).

The available stations are represented by yellow and red dots on the map.

Hover mouse over dot to see the name of the station.

Then click to see weather observations and forecasts.

To change the map : click on the green buttons with a black cross to zoom in, on the green button with a dash to zoom out, or on the green arrows for adjacent maps.


METAR-TAF: